Wednesday, April 25, 2018, 8:13 AM EDT
Back to Local

KBUF, Greater Buffalo International Airport

Location: Buffalo, NY, United States Lat: 42.933
Local Time: 8:13 AM EDT (12:13 GMT) Lon: -78.733
Time Zone: US/Eastern Elev: 725 ft

Show me the last for .
Show Coded

Time T Td Feel RH Dir Speed Gust Alt SLP Vis Weather Sky Remarks
2018-04-25 07:54 49 49 48 100 30° 3 - 29.88 29.89 4 -RA BR OVC030 1-hr Precip Total: 0.02"
6-hr Precip Total (8am): 0.04"
24-hr Precip Total (8am): 0.17"
6-hr Min Temp (8am): 48.9°F
6-hr Max Temp (8am): 50.0°F
2018-04-25 07:39 49 49 47 100 40° 5 - 29.88 - 3 -RA BR BKN030 OVC035 1-hr Precip Total: 0.02"
2018-04-25 07:21 49 49 48 100 40° 3 - 29.89 - 2 -RA BR BKN028 OVC036 1-hr Precip Total: 0.01"
2018-04-25 07:13 49 49 47 100 40° 5 - 29.89 - 2 -RA BR FEW016 BKN030 OVC036 1-hr Precip Total: Trace
2018-04-25 07:05 49 48 47 96 50° 6 - 29.89 - 3 -RA BR FEW016 OVC034 1-hr Precip Total: Trace
2018-04-25 06:54 49 48 47 96 60° 6 - 29.89 29.90 2 -RA BR BKN036 OVC050 1-hr Precip Total: 0.02"
2018-04-25 06:41 48 48 46 100 60° 6 - 29.89 - 2 -RA BR SCT033 BKN042 OVC050 None
2018-04-25 05:54 49 48 47 96 60° 5 - 29.90 29.90 10 -RA SCT036 OVC060 1-hr Precip Total: Trace
2018-04-25 04:54 49 48 47 96 60° 5 - 29.91 29.92 10 FEW045 OVC065 1-hr Precip Total: Trace
6-hr Precip Total (5am): 0.00"
2018-04-25 03:54 49 48 45 96 70° 8 - 29.92 29.93 10 -RA BKN040 OVC055 1-hr Precip Total: Trace
2018-04-25 02:54 49 48 48 96 70° 3 - 29.96 29.96 10 FEW050 OVC090 1-hr Precip Total: Trace
2018-04-25 01:54 50 48 47 92 70° 7 - 29.99 29.99 10 -RA BKN060 OVC095 1-hr Precip Total: 0.01"
6-hr Precip Total (2am): 0.11"
6-hr Min Temp (2am): 50.0°F
6-hr Max Temp (2am): 53.1°F
2018-04-25 00:54 50 48 46 92 70° 9 - 30.01 30.01 9 -RA BKN048 OVC055 1-hr Precip Total: 0.03"
24-hr Min Temp (1am): 50.0°F
24-hr Max Temp (1am): 66.9°F
2018-04-24 23:54 51 48 - 89 70° 7 - 30.04 30.04 8 -RA BKN048 OVC060 1-hr Precip Total: 0.04"
2018-04-24 22:54 52 50 - 92 80° 6 - 30.06 30.06 8 -RA OVC055 1-hr Precip Total: 0.01"
6-hr Precip Total (11pm): 0.03"
2018-04-24 21:54 53 50 - 89 100° 6 - 30.08 30.08 8 -RA OVC055 1-hr Precip Total: 0.01"
2018-04-24 20:54 53 51 - 92 60° 6 - 30.07 30.07 8 -RA OVC060 1-hr Precip Total: 0.01"
2018-04-24 19:54 53 51 - 92 60° 5 - 30.07 30.08 9 -RA BKN060 OVC075 1-hr Precip Total: 0.01"
6-hr Precip Total (8pm): 0.02"
6-hr Min Temp (8pm): 53.1°F
6-hr Max Temp (8pm): 64.9°F
2018-04-24 18:54 55 49 - 79 60° 3 - 30.08 30.09 8 -RA FEW045 BKN060 OVC070 1-hr Precip Total: Trace
2018-04-24 17:54 56 48 - 74 200° 5 - 30.10 30.10 10 -RA FEW045 BKN060 OVC075 1-hr Precip Total: 0.01"
2018-04-24 16:54 57 48 - 71 180° 6 - 30.10 30.11 10 -RA FEW055 OVC070 1-hr Precip Total: Trace
6-hr Precip Total (5pm): 0.00"
2018-04-24 15:54 58 47 - 66 160° 10 - 30.12 30.13 10 -RA BKN060 OVC075 1-hr Precip Total: Trace
2018-04-24 14:54 60 45 - 57 230° 16 - 30.14 30.14 10 -RA BKN060 OVC075 1-hr Precip Total: Trace
2018-04-24 13:54 65 38 - 36 180° 15 - 30.14 30.14 10 BKN100 OVC150 6-hr Min Temp (2pm): 55.9°F
6-hr Max Temp (2pm): 66.9°F
2018-04-24 12:54 64 36 - 35 170° 12 - 30.15 30.14 10 BKN100 BKN150 BKN200 None
2018-04-24 11:54 63 36 - 36 200° 8 - 30.17 30.17 10 BKN080 BKN150 BKN250 Virga in the vinicity
2018-04-24 10:54 62 39 - 42 210° 12 - 30.20 30.19 10 FEW080 FEW120 SCT150 SCT180 BKN260 None
2018-04-24 09:54 58 38 - 47 200° 12 - 30.22 30.22 10 FEW080 FEW120 SCT150 BKN180 BKN250 Virga in the vinicity
2018-04-24 08:54 57 39 - 50 200° 14 - 30.22 30.22 10 FEW100 BKN150 BKN200 OVC250 Virga in the vinicity

Support USWX by starting your Amazon purchase here.